Time;durP1;ratioP1;P1;durP2;ratioP2;P2;SDS_P1;SDS_P2;PMS_P1;PMS_P2;Temp;Humidity;BMP_temperature;BMP_pressure;BME280_temperature;BME280_humidity;BME280_pressure;Samples;Min_cycle;Max_cycle;Signal;HPM_P1;HPM_P2
2021/12/26 00:00:47;;;;;;;;;;;-5.90;99.90;;;;;;5073762;28;19947;-85
2021/12/26 00:03:13;;;;;;;;;;;-5.90;99.90;;;;;;5074641;28;19977;-86
2021/12/26 00:05:39;;;;;;;;;;;-5.70;99.90;;;;;;5067278;28;20015;-85
2021/12/26 00:08:04;;;;;;;;;;;-6.10;99.90;;;;;;5076876;28;19932;-84
2021/12/26 00:10:30;;;;;;;;;;;-3.10;99.90;;;;;;5069769;28;20106;-84
2021/12/26 00:12:57;;;;;;;;;;;-5.90;99.90;;;;;;5066449;28;20194;-89
2021/12/26 00:15:23;;;;;;;;;;;-5.70;99.90;;;;;;5062092;28;19989;-86
2021/12/26 00:17:49;;;;;;;;;;;-4.40;99.90;;;;;;5060646;28;20407;-85
2021/12/26 00:20:15;;;;;;;;;;;-5.90;99.90;;;;;;5067413;28;19925;-88
2021/12/26 00:22:41;;;;;;;;;;;-6.20;99.90;;;;;;5050248;28;19932;-84
2021/12/26 00:25:07;;;;;;;;;;;-6.10;99.90;;;;;;5062513;28;19932;-85
2021/12/26 00:27:33;;;;;;;;;;;-6.00;99.90;;;;;;5062484;28;20565;-85
2021/12/26 00:29:59;;;;;;;;;;;-6.00;99.90;;;;;;5059799;28;19924;-85
2021/12/26 00:32:25;;;;;;;;;;;-6.10;99.90;;;;;;5061036;28;20024;-84
2021/12/26 00:34:51;;;;;;;;;;;-6.20;99.90;;;;;;5061449;28;19925;-84
2021/12/26 00:37:17;;;;;;;;;;;-6.10;99.90;;;;;;5063084;28;19939;-85
2021/12/26 00:39:43;;;;;;;;;;;-6.00;99.90;;;;;;5061697;28;20429;-85
2021/12/26 00:42:09;;;;;;;;;;;-5.00;99.90;;;;;;5080426;28;19940;-84
2021/12/26 00:44:39;;;;;;;;;;;-6.10;99.90;;;;;;5063110;28;20233;-85
2021/12/26 00:47:06;;;;;;;;;;;-6.00;99.90;;;;;;5064382;28;19962;-84
2021/12/26 00:49:31;;;;;;;;;;;-5.10;99.90;;;;;;5065545;28;20262;-84
2021/12/26 00:51:57;;;;;;;;;;;-6.00;99.90;;;;;;5066257;28;20059;-84
2021/12/26 00:54:23;;;;;;;;;;;-6.00;99.90;;;;;;5063630;28;20377;-86
2021/12/26 00:56:48;;;;;;;;;;;-6.00;99.90;;;;;;5063719;28;19924;-85
2021/12/26 00:59:14;;;;;;;;;;;-6.10;99.90;;;;;;5064967;28;20011;-85
2021/12/26 01:01:40;;;;;;;;;;;-6.10;99.90;;;;;;5068542;28;19931;-84
2021/12/26 01:04:05;;;;;;;;;;;-6.20;99.90;;;;;;5069484;28;20001;-85
2021/12/26 01:06:31;;;;;;;;;;;-6.00;99.90;;;;;;5069818;28;19924;-86
2021/12/26 01:08:57;;;;;;;;;;;-6.00;99.90;;;;;;5070096;28;19928;-87
2021/12/26 01:11:48;;;;;;;;;;;-6.00;99.90;;;;;;5070384;28;20015;-85
2021/12/26 01:14:14;;;;;;;;;;;-6.10;99.90;;;;;;5070548;28;19924;-85
2021/12/26 01:16:40;;;;;;;;;;;-6.10;99.90;;;;;;5065817;28;20256;-85
2021/12/26 01:19:12;;;;;;;;;;;-6.10;99.90;;;;;;5071392;28;19925;-85
2021/12/26 01:21:38;;;;;;;;;;;-4.00;99.90;;;;;;5069378;28;19936;-86
2021/12/26 01:24:05;;;;;;;;;;;-4.60;99.90;;;;;;5081345;28;20373;-86
2021/12/26 01:26:31;;;;;;;;;;;-6.20;99.90;;;;;;5060401;28;19935;-86
2021/12/26 01:28:56;;;;;;;;;;;-6.10;99.90;;;;;;5069092;28;19932;-85
2021/12/26 01:31:23;;;;;;;;;;;-6.20;99.90;;;;;;5062600;28;20252;-88
2021/12/26 01:33:49;;;;;;;;;;;-6.20;99.90;;;;;;5070495;28;20405;-89
2021/12/26 01:36:15;;;;;;;;;;;-6.10;99.90;;;;;;5065820;28;19980;-88
2021/12/26 01:38:40;;;;;;;;;;;-5.80;99.90;;;;;;5064258;28;19968;-88
2021/12/26 01:41:09;;;;;;;;;;;-4.10;99.90;;;;;;5062707;28;19998;-88
2021/12/26 01:43:36;;;;;;;;;;;-6.20;99.90;;;;;;5062562;28;19924;-88
2021/12/26 01:46:02;;;;;;;;;;;-6.00;99.90;;;;;;5081339;28;19940;-88
2021/12/26 01:48:28;;;;;;;;;;;-6.10;99.90;;;;;;5063613;28;19924;-88
2021/12/26 01:50:54;;;;;;;;;;;-6.20;99.90;;;;;;5071010;28;20380;-88
2021/12/26 01:53:23;;;;;;;;;;;-6.00;99.90;;;;;;5067807;28;19925;-89
2021/12/26 01:55:49;;;;;;;;;;;-6.40;99.90;;;;;;5066487;28;19924;-88
2021/12/26 01:58:26;;;;;;;;;;;-6.40;99.90;;;;;;5064038;28;19935;-88
2021/12/26 02:00:56;;;;;;;;;;;-6.30;99.90;;;;;;5063382;28;19928;-89
2021/12/26 02:03:22;;;;;;;;;;;-6.40;99.90;;;;;;5064404;28;19925;-87
2021/12/26 02:05:47;;;;;;;;;;;-5.70;99.90;;;;;;5062393;28;20041;-90
2021/12/26 02:08:13;;;;;;;;;;;-3.60;99.90;;;;;;5065963;28;20372;-87
2021/12/26 02:10:39;;;;;;;;;;;-6.30;99.90;;;;;;5066530;28;19954;-89
2021/12/26 02:13:05;;;;;;;;;;;-6.40;99.90;;;;;;5062403;28;20279;-87
2021/12/26 02:15:30;;;;;;;;;;;-6.60;99.90;;;;;;5063795;28;19933;-88
2021/12/26 02:17:57;;;;;;;;;;;-5.70;99.90;;;;;;5068290;28;19935;-87
2021/12/26 02:20:41;;;;;;;;;;;-6.80;99.90;;;;;;5071686;28;20348;-88
2021/12/26 02:23:15;;;;;;;;;;;-6.50;99.90;;;;;;5064626;28;19932;-88
2021/12/26 02:28:09;;;;;;;;;;;-6.70;99.90;;;;;;5065203;28;19928;-89
2021/12/26 02:30:35;;;;;;;;;;;-6.60;99.90;;;;;;5065068;28;20035;-89
2021/12/26 02:33:03;;;;;;;;;;;-4.80;99.90;;;;;;5063733;28;20012;-88
2021/12/26 02:35:30;;;;;;;;;;;-6.70;99.90;;;;;;5064643;28;19985;-88
2021/12/26 02:37:56;;;;;;;;;;;-6.60;99.90;;;;;;5067066;28;20020;-88
2021/12/26 02:40:22;;;;;;;;;;;-6.90;99.90;;;;;;5069936;28;19925;-88
2021/12/26 02:42:48;;;;;;;;;;;-6.70;99.90;;;;;;5067569;28;19932;-88
2021/12/26 02:45:14;;;;;;;;;;;-6.90;99.90;;;;;;5066894;28;20250;-90
2021/12/26 02:47:41;;;;;;;;;;;-7.00;99.90;;;;;;5067782;28;20241;-89
2021/12/26 02:50:15;;;;;;;;;;;-6.80;99.90;;;;;;5069073;28;19932;-89
2021/12/26 02:52:40;;;;;;;;;;;-6.80;99.90;;;;;;5067817;28;19925;-89
2021/12/26 02:55:07;;;;;;;;;;;-6.70;99.90;;;;;;5069741;28;19928;-90
2021/12/26 02:57:33;;;;;;;;;;;-6.60;99.90;;;;;;5068388;28;19939;-89
2021/12/26 03:00:11;;;;;;;;;;;-6.80;99.90;;;;;;5067890;28;20004;-88
2021/12/26 03:02:40;;;;;;;;;;;-6.50;99.90;;;;;;5068150;28;19934;-89
2021/12/26 03:05:06;;;;;;;;;;;-6.60;99.90;;;;;;5069627;28;19924;-89
2021/12/26 03:07:32;;;;;;;;;;;-6.70;99.90;;;;;;5068049;28;19924;-89
2021/12/26 03:10:00;;;;;;;;;;;-6.60;99.90;;;;;;5068445;28;19935;-90
2021/12/26 03:12:30;;;;;;;;;;;-6.50;99.90;;;;;;5066273;28;19972;-89
2021/12/26 03:14:56;;;;;;;;;;;-6.60;99.90;;;;;;5067112;28;19924;-90
2021/12/26 03:17:22;;;;;;;;;;;-6.50;99.90;;;;;;5068019;28;19924;-90
2021/12/26 03:19:47;;;;;;;;;;;-6.50;99.90;;;;;;5069900;28;20073;-90
2021/12/26 03:22:16;;;;;;;;;;;-6.70;99.90;;;;;;5086729;28;19924;-91
2021/12/26 03:24:43;;;;;;;;;;;-6.40;99.90;;;;;;5069616;28;20350;-91
2021/12/26 03:27:09;;;;;;;;;;;-6.60;99.90;;;;;;5069453;28;19924;-90
2021/12/26 03:29:35;;;;;;;;;;;-6.50;99.90;;;;;;5069289;28;19968;-89
2021/12/26 03:32:01;;;;;;;;;;;-6.50;99.90;;;;;;5069244;28;19979;-90
2021/12/26 03:34:28;;;;;;;;;;;-6.60;99.90;;;;;;5067053;28;20459;-92
2021/12/26 03:36:56;;;;;;;;;;;-6.60;99.90;;;;;;5069788;28;20356;-92
2021/12/26 03:39:22;;;;;;;;;;;-6.70;99.90;;;;;;5071237;28;20361;-92
2021/12/26 03:41:48;;;;;;;;;;;-3.70;99.90;;;;;;5072176;28;20411;-92
2021/12/26 03:44:14;;;;;;;;;;;-6.50;99.90;;;;;;5071883;28;20075;-91
2021/12/26 03:46:39;;;;;;;;;;;-6.50;99.90;;;;;;5070438;28;19931;-90
2021/12/26 03:49:06;;;;;;;;;;;-4.70;99.90;;;;;;5067536;28;20011;-92
2021/12/26 03:51:33;;;;;;;;;;;-6.80;99.90;;;;;;5068633;28;20337;-92
2021/12/26 03:53:59;;;;;;;;;;;-4.20;99.90;;;;;;5067910;28;19950;-92
2021/12/26 03:56:24;;;;;;;;;;;-6.70;99.90;;;;;;5067373;28;19924;-91
2021/12/26 03:58:50;;;;;;;;;;;-6.60;99.90;;;;;;5068683;28;20341;-91
2021/12/26 04:01:16;;;;;;;;;;;-5.80;99.90;;;;;;5068629;28;20019;-94
2021/12/26 04:03:41;;;;;;;;;;;-6.50;99.90;;;;;;5068446;28;20369;-92
2021/12/26 04:06:07;;;;;;;;;;;-6.60;99.90;;;;;;5068212;28;19924;-93
2021/12/26 04:08:32;;;;;;;;;;;-6.80;99.90;;;;;;5068546;28;20061;-92
2021/12/26 04:10:58;;;;;;;;;;;-6.70;99.90;;;;;;5068324;28;19928;-91
2021/12/26 04:13:24;;;;;;;;;;;-6.80;99.90;;;;;;5069921;28;20255;-91
2021/12/26 04:15:49;;;;;;;;;;;-7.10;99.90;;;;;;5067856;28;19924;-90
2021/12/26 04:18:15;;;;;;;;;;;-6.90;99.90;;;;;;5071954;28;19928;-92
2021/12/26 04:20:40;;;;;;;;;;;-6.60;99.90;;;;;;5057144;28;19924;-89
2021/12/26 04:23:06;;;;;;;;;;;-6.70;99.90;;;;;;5070771;28;19939;-92
2021/12/26 04:25:32;;;;;;;;;;;-6.70;99.90;;;;;;5070603;28;20372;-92
2021/12/26 04:27:58;;;;;;;;;;;-6.60;99.90;;;;;;5072320;28;19974;-90
2021/12/26 04:30:24;;;;;;;;;;;-6.50;99.90;;;;;;5065013;28;20385;-93
2021/12/26 04:32:49;;;;;;;;;;;-6.50;99.90;;;;;;5064709;28;19932;-92
2021/12/26 04:35:16;;;;;;;;;;;-6.80;99.90;;;;;;5069181;28;19935;-94
2021/12/26 04:37:41;;;;;;;;;;;-6.70;99.90;;;;;;5046511;28;20349;-90
2021/12/26 04:40:08;;;;;;;;;;;-6.90;99.90;;;;;;5066549;28;19924;-93
2021/12/26 04:42:36;;;;;;;;;;;-6.50;99.90;;;;;;5066996;28;19925;-93
2021/12/26 04:45:03;;;;;;;;;;;-6.60;99.90;;;;;;5064618;28;19925;-93
2021/12/26 04:47:28;;;;;;;;;;;-6.60;99.90;;;;;;5062893;28;19930;-91
2021/12/26 04:49:54;;;;;;;;;;;-6.50;99.90;;;;;;5064900;28;20565;-92
2021/12/26 04:52:19;;;;;;;;;;;-6.70;99.90;;;;;;5065902;28;19933;-93
2021/12/26 04:54:45;;;;;;;;;;;-6.60;99.90;;;;;;5065225;28;19929;-89
2021/12/26 04:57:11;;;;;;;;;;;-6.90;99.90;;;;;;5064216;28;19932;-94
2021/12/26 04:59:37;;;;;;;;;;;-3.60;99.90;;;;;;5064841;28;19939;-92
2021/12/26 05:02:02;;;;;;;;;;;-6.70;99.90;;;;;;5065683;28;19924;-93
2021/12/26 05:04:28;;;;;;;;;;;-6.60;99.90;;;;;;5065349;28;20380;-91
2021/12/26 05:06:54;;;;;;;;;;;-6.90;99.90;;;;;;5063383;28;19932;-92
2021/12/26 05:09:22;;;;;;;;;;;-7.00;99.90;;;;;;5064503;28;19974;-92
2021/12/26 05:11:48;;;;;;;;;;;-6.40;99.90;;;;;;5064863;28;19928;-92
2021/12/26 05:14:13;;;;;;;;;;;-6.70;99.90;;;;;;5066215;28;19928;-91
2021/12/26 05:16:39;;;;;;;;;;;-6.40;99.90;;;;;;5065541;28;19954;-93
2021/12/26 05:19:04;;;;;;;;;;;-6.60;99.90;;;;;;5064678;28;19937;-92
2021/12/26 05:21:30;;;;;;;;;;;-6.70;99.90;;;;;;5064835;28;20013;-94
2021/12/26 05:23:56;;;;;;;;;;;-6.60;99.90;;;;;;5066843;28;20213;-90
2021/12/26 05:26:21;;;;;;;;;;;-6.50;99.90;;;;;;5072085;28;20351;-91
2021/12/26 05:28:47;;;;;;;;;;;-4.50;99.90;;;;;;5068463;28;19951;-88
2021/12/26 05:31:12;;;;;;;;;;;-5.20;99.90;;;;;;5073256;28;19924;-92
2021/12/26 05:33:38;;;;;;;;;;;-6.70;99.90;;;;;;5067865;28;19925;-93
2021/12/26 05:36:04;;;;;;;;;;;-4.90;99.90;;;;;;5068998;28;19929;-93
2021/12/26 05:38:29;;;;;;;;;;;-6.50;99.90;;;;;;5063649;28;19924;-92
2021/12/26 05:40:55;;;;;;;;;;;-6.60;99.90;;;;;;5065435;28;20464;-92
2021/12/26 05:43:21;;;;;;;;;;;-7.20;99.90;;;;;;5064532;28;19932;-88
2021/12/26 05:45:47;;;;;;;;;;;-6.60;99.90;;;;;;5067749;28;19939;-93
2021/12/26 05:48:13;;;;;;;;;;;-4.60;99.90;;;;;;5065249;28;19924;-92
2021/12/26 05:50:38;;;;;;;;;;;-5.00;99.90;;;;;;5063561;28;19935;-91
2021/12/26 05:53:04;;;;;;;;;;;-6.80;99.90;;;;;;5063285;28;19929;-92
2021/12/26 05:55:31;;;;;;;;;;;-5.60;99.90;;;;;;5065622;28;20679;-93
2021/12/26 05:57:57;;;;;;;;;;;-6.80;99.90;;;;;;5063031;28;19932;-91
2021/12/26 06:00:22;;;;;;;;;;;-6.70;99.90;;;;;;5063525;28;19928;-91
2021/12/26 06:02:50;;;;;;;;;;;-7.00;99.90;;;;;;5062359;28;19924;-92
2021/12/26 06:05:19;;;;;;;;;;;-4.20;99.90;;;;;;5063838;28;19987;-92
2021/12/26 06:07:44;;;;;;;;;;;-6.70;99.90;;;;;;5063801;28;19940;-89
2021/12/26 06:10:10;;;;;;;;;;;-7.10;99.90;;;;;;5066951;28;19924;-89
2021/12/26 06:12:36;;;;;;;;;;;-4.00;99.90;;;;;;5063867;28;19924;-91
2021/12/26 06:15:02;;;;;;;;;;;-4.10;99.90;;;;;;5062538;28;19989;-90
2021/12/26 06:17:28;;;;;;;;;;;-5.60;99.90;;;;;;5070374;28;20036;-93
2021/12/26 06:19:54;;;;;;;;;;;-3.90;99.90;;;;;;5059103;28;19928;-89
2021/12/26 06:22:19;;;;;;;;;;;-6.60;99.90;;;;;;5072885;28;19932;-93
2021/12/26 06:24:45;;;;;;;;;;;-6.70;99.90;;;;;;5089018;28;20373;-92
2021/12/26 06:27:10;;;;;;;;;;;-6.70;99.90;;;;;;5054577;28;19924;-92
2021/12/26 06:29:36;;;;;;;;;;;-6.90;99.90;;;;;;5069134;28;19940;-93
2021/12/26 06:32:01;;;;;;;;;;;-6.70;99.90;;;;;;5067406;28;20015;-93
2021/12/26 06:34:27;;;;;;;;;;;-6.60;99.90;;;;;;5067108;28;20358;-90
2021/12/26 06:36:53;;;;;;;;;;;-6.60;99.90;;;;;;5065373;28;19980;-89
2021/12/26 06:39:19;;;;;;;;;;;-6.70;99.90;;;;;;5062803;28;19925;-91
2021/12/26 06:41:45;;;;;;;;;;;-6.70;99.90;;;;;;5051527;28;20463;-91
2021/12/26 06:44:10;;;;;;;;;;;-6.40;99.90;;;;;;5067775;28;20022;-89
2021/12/26 06:46:36;;;;;;;;;;;-6.80;99.90;;;;;;5069300;28;19928;-90
2021/12/26 06:49:03;;;;;;;;;;;-6.80;99.90;;;;;;5065343;28;19931;-92
2021/12/26 06:51:29;;;;;;;;;;;-4.90;99.90;;;;;;5062668;28;19996;-93
2021/12/26 06:53:54;;;;;;;;;;;-4.20;99.90;;;;;;5062755;28;19924;-88
2021/12/26 06:56:20;;;;;;;;;;;-6.00;99.90;;;;;;5063276;28;19971;-92
2021/12/26 06:58:46;;;;;;;;;;;-6.90;99.90;;;;;;5061101;28;19936;-90
2021/12/26 07:01:11;;;;;;;;;;;-5.60;99.90;;;;;;5046037;28;19924;-91
2021/12/26 07:03:37;;;;;;;;;;;-6.80;99.90;;;;;;5063650;28;19968;-90
2021/12/26 07:06:03;;;;;;;;;;;-6.50;99.90;;;;;;5061739;28;20409;-91
2021/12/26 07:08:28;;;;;;;;;;;-6.80;99.90;;;;;;5064954;28;19925;-93
2021/12/26 07:10:54;;;;;;;;;;;-4.50;99.90;;;;;;5062615;28;19934;-89
2021/12/26 07:13:20;;;;;;;;;;;-6.70;99.90;;;;;;5061594;28;21740;-92
2021/12/26 07:15:45;;;;;;;;;;;-6.80;99.90;;;;;;5059740;28;20102;-92
2021/12/26 07:18:11;;;;;;;;;;;-7.00;99.90;;;;;;5062878;28;20355;-91
2021/12/26 07:20:37;;;;;;;;;;;-6.80;99.90;;;;;;5062031;28;20070;-90
2021/12/26 07:23:04;;;;;;;;;;;-6.90;99.90;;;;;;5026095;28;19933;-90
2021/12/26 07:25:29;;;;;;;;;;;-6.80;99.90;;;;;;5062136;28;19971;-93
2021/12/26 07:27:55;;;;;;;;;;;-4.10;99.90;;;;;;5064107;28;19924;-92
2021/12/26 07:30:21;;;;;;;;;;;-6.80;99.90;;;;;;5062698;28;19925;-91
2021/12/26 07:32:46;;;;;;;;;;;-6.70;99.90;;;;;;5058878;28;19932;-92
2021/12/26 07:35:12;;;;;;;;;;;-7.00;99.90;;;;;;5066835;28;19924;-92
2021/12/26 07:37:38;;;;;;;;;;;-7.00;99.90;;;;;;5067516;28;19924;-92
2021/12/26 07:40:04;;;;;;;;;;;-7.20;99.90;;;;;;5066120;28;19932;-92
2021/12/26 07:42:30;;;;;;;;;;;-6.70;99.90;;;;;;5049368;28;20329;-91
2021/12/26 07:44:56;;;;;;;;;;;-6.70;99.90;;;;;;5070314;28;19931;-90
2021/12/26 07:47:21;;;;;;;;;;;-6.60;99.90;;;;;;5067848;28;20794;-82
2021/12/26 07:49:47;;;;;;;;;;;-4.70;99.90;;;;;;5063618;28;19932;-84
2021/12/26 07:52:17;;;;;;;;;;;-6.70;99.90;;;;;;5065533;28;19924;-83
2021/12/26 07:54:44;;;;;;;;;;;-6.80;99.90;;;;;;5067321;28;20390;-83
2021/12/26 07:57:10;;;;;;;;;;;-8.40;99.90;;;;;;5064247;28;19925;-84
2021/12/26 07:59:35;;;;;;;;;;;-6.80;99.90;;;;;;5069030;28;19925;-83
2021/12/26 08:02:01;;;;;;;;;;;-7.00;99.90;;;;;;5065672;28;20292;-84
2021/12/26 08:04:26;;;;;;;;;;;-4.90;99.90;;;;;;5069356;28;20377;-83
2021/12/26 08:06:53;;;;;;;;;;;-6.70;99.90;;;;;;5066978;28;19978;-83
2021/12/26 08:09:18;;;;;;;;;;;-6.50;99.90;;;;;;5067467;28;20268;-90
2021/12/26 08:11:44;;;;;;;;;;;-7.00;99.90;;;;;;5065225;28;20050;-91
2021/12/26 08:14:09;;;;;;;;;;;-6.80;99.90;;;;;;5065516;28;19947;-89
2021/12/26 08:16:35;;;;;;;;;;;-6.60;99.90;;;;;;5067656;28;20018;-90
2021/12/26 08:19:06;;;;;;;;;;;-6.60;99.90;;;;;;5063821;28;19924;-90
2021/12/26 08:21:32;;;;;;;;;;;-6.50;99.90;;;;;;5067626;28;19924;-90
2021/12/26 08:23:58;;;;;;;;;;;-6.50;99.90;;;;;;5054434;28;19943;-90
2021/12/26 08:26:24;;;;;;;;;;;-6.70;99.90;;;;;;5073889;28;20143;-90
2021/12/26 08:28:49;;;;;;;;;;;-6.50;99.90;;;;;;5070634;28;19924;-89
2021/12/26 08:31:16;;;;;;;;;;;-6.50;99.90;;;;;;5068863;28;19935;-82
2021/12/26 08:33:42;;;;;;;;;;;-6.10;99.90;;;;;;5069950;28;20004;-89
2021/12/26 08:36:08;;;;;;;;;;;-6.50;99.90;;;;;;5067700;28;20384;-89
2021/12/26 08:38:33;;;;;;;;;;;-6.00;99.90;;;;;;5071773;28;19993;-90
2021/12/26 08:41:00;;;;;;;;;;;-6.50;99.90;;;;;;5068363;28;19963;-89
2021/12/26 08:43:26;;;;;;;;;;;-6.40;99.90;;;;;;5069479;28;20444;-89
2021/12/26 08:45:51;;;;;;;;;;;-6.20;99.90;;;;;;5069324;28;20003;-89
2021/12/26 08:48:17;;;;;;;;;;;-6.20;99.90;;;;;;5070765;28;20015;-89
2021/12/26 08:50:44;;;;;;;;;;;-6.10;99.90;;;;;;5063840;28;19928;-89
2021/12/26 08:53:09;;;;;;;;;;;-6.00;99.90;;;;;;5046622;28;20029;-89
2021/12/26 08:55:36;;;;;;;;;;;-6.40;99.90;;;;;;5070999;28;20403;-89
2021/12/26 08:58:05;;;;;;;;;;;-5.90;99.90;;;;;;5068014;28;19924;-90
2021/12/26 09:00:32;;;;;;;;;;;-3.50;99.90;;;;;;5068332;28;19962;-89
2021/12/26 09:02:58;;;;;;;;;;;-5.80;99.90;;;;;;5072396;28;19938;-89
2021/12/26 09:05:24;;;;;;;;;;;-5.90;99.90;;;;;;5067877;28;19924;-89
2021/12/26 09:07:49;;;;;;;;;;;-6.00;99.90;;;;;;5055971;28;20356;-89
2021/12/26 09:10:15;;;;;;;;;;;-3.80;99.90;;;;;;5073486;28;19924;-86
2021/12/26 09:12:41;;;;;;;;;;;-5.50;99.90;;;;;;5073266;28;20345;-81
2021/12/26 09:15:08;;;;;;;;;;;-5.60;99.90;;;;;;5071745;28;20015;-86
2021/12/26 09:17:34;;;;;;;;;;;-6.90;99.90;;;;;;5070112;28;20032;-85
2021/12/26 09:20:00;;;;;;;;;;;-5.30;99.90;;;;;;5072509;28;20419;-84
2021/12/26 09:22:25;;;;;;;;;;;-5.30;99.90;;;;;;5067756;28;20369;-83
2021/12/26 09:24:51;;;;;;;;;;;-5.30;99.90;;;;;;5072080;28;20343;-85
2021/12/26 09:27:20;;;;;;;;;;;-3.30;99.90;;;;;;5054882;28;19924;-85
2021/12/26 09:29:45;;;;;;;;;;;-3.80;99.90;;;;;;5073619;28;20004;-86
2021/12/26 09:32:11;;;;;;;;;;;-4.00;99.90;;;;;;5054159;28;19932;-88
2021/12/26 09:34:37;;;;;;;;;;;-5.10;99.90;;;;;;5071455;28;19940;-84
2021/12/26 09:37:04;;;;;;;;;;;-2.40;99.90;;;;;;5065521;28;19925;-83
2021/12/26 09:39:30;;;;;;;;;;;-5.00;99.90;;;;;;5071213;28;20110;-82
2021/12/26 09:41:55;;;;;;;;;;;-4.80;99.90;;;;;;5071753;28;20443;-82
2021/12/26 09:44:21;;;;;;;;;;;-2.20;99.90;;;;;;5075273;28;19982;-84
2021/12/26 09:46:47;;;;;;;;;;;-4.70;99.90;;;;;;5069243;28;20024;-88
2021/12/26 09:49:13;;;;;;;;;;;-4.60;99.90;;;;;;5069344;28;20003;-89
2021/12/26 09:51:39;;;;;;;;;;;-3.70;99.90;;;;;;5070021;28;19929;-86
2021/12/26 09:54:05;;;;;;;;;;;-3.90;99.90;;;;;;5073088;28;20345;-88
2021/12/26 09:56:31;;;;;;;;;;;-4.40;99.90;;;;;;5054292;28;19974;-87
2021/12/26 09:59:04;;;;;;;;;;;-4.40;99.90;;;;;;5072466;28;20241;-85
2021/12/26 10:01:32;;;;;;;;;;;-4.10;99.90;;;;;;5054314;28;19925;-87
2021/12/26 10:04:02;;;;;;;;;;;-4.20;99.90;;;;;;5071805;28;20011;-88
2021/12/26 10:06:31;;;;;;;;;;;-4.00;99.90;;;;;;5053468;28;20399;-87
2021/12/26 10:09:05;;;;;;;;;;;-4.00;99.90;;;;;;5071177;28;20012;-88
2021/12/26 10:11:35;;;;;;;;;;;-4.70;92.90;;;;;;5069841;28;19975;-85
2021/12/26 10:14:11;;;;;;;;;;;-3.80;99.90;;;;;;5073192;28;19928;-87
2021/12/26 10:16:44;;;;;;;;;;;-3.70;92.50;;;;;;5071064;28;19966;-86
2021/12/26 10:19:11;;;;;;;;;;;-3.70;94.50;;;;;;5050147;28;19924;-84
2021/12/26 10:21:36;;;;;;;;;;;-1.00;99.90;;;;;;5067509;28;20148;-83
2021/12/26 10:24:05;;;;;;;;;;;-3.00;96.50;;;;;;5054029;28;20389;-84
2021/12/26 10:26:32;;;;;;;;;;;-2.60;54.70;;;;;;5069530;28;19932;-83
2021/12/26 10:29:07;;;;;;;;;;;-2.70;87.60;;;;;;5074996;28;20288;-79
2021/12/26 10:31:33;;;;;;;;;;;-2.20;61.90;;;;;;5070549;28;19932;-85
2021/12/26 10:34:01;;;;;;;;;;;-2.50;81.80;;;;;;5070352;28;19925;-86
2021/12/26 10:36:27;;;;;;;;;;;-2.70;84.80;;;;;;5068795;28;20029;-86
2021/12/26 10:39:17;;;;;;;;;;;-2.80;95.90;;;;;;5070188;28;19924;-86
2021/12/26 10:41:45;;;;;;;;;;;-2.10;89.50;;;;;;5066217;28;20373;-86
2021/12/26 10:44:20;;;;;;;;;;;-2.70;96.30;;;;;;5036628;28;19924;-88
2021/12/26 10:46:47;;;;;;;;;;;-2.60;93.40;;;;;;5070100;28;20015;-84
2021/12/26 10:49:33;;;;;;;;;;;-2.80;91.30;;;;;;5070713;28;19932;-85
2021/12/26 10:51:59;;;;;;;;;;;-2.60;77.40;;;;;;5066153;28;20015;-81
2021/12/26 10:54:27;;;;;;;;;;;-2.60;92.30;;;;;;5069266;28;20286;-82
2021/12/26 10:57:10;;;;;;;;;;;-2.80;91.20;;;;;;5069914;28;20472;-86
2021/12/26 10:59:40;;;;;;;;;;;-2.40;86.10;;;;;;5071604;28;19932;-87
2021/12/26 11:02:06;;;;;;;;;;;-2.60;94.00;;;;;;5087329;28;20029;-85
2021/12/26 11:04:33;;;;;;;;;;;-0.10;90.30;;;;;;5069633;28;19925;-85
2021/12/26 11:07:00;;;;;;;;;;;-2.50;91.30;;;;;;5070857;28;19925;-87
2021/12/26 11:09:26;;;;;;;;;;;0.00;90.80;;;;;;5070134;28;19992;-85
2021/12/26 11:12:03;;;;;;;;;;;-2.30;93.30;;;;;;5069778;28;19931;-85
2021/12/26 11:14:29;;;;;;;;;;;-1.90;93.20;;;;;;5069128;28;20447;-85
2021/12/26 11:16:54;;;;;;;;;;;0.70;99.90;;;;;;5070269;28;20000;-85
2021/12/26 11:19:39;;;;;;;;;;;-2.20;99.90;;;;;;5071394;28;19947;-86
2021/12/26 11:22:05;;;;;;;;;;;-2.20;96.80;;;;;;5069296;28;19928;-86
2021/12/26 11:24:32;;;;;;;;;;;1.00;99.00;;;;;;5068068;28;20046;-86
2021/12/26 11:26:58;;;;;;;;;;;-2.10;90.00;;;;;;5069287;28;19952;-86
2021/12/26 11:29:23;;;;;;;;;;;1.60;95.50;;;;;;5069072;28;19925;-90
2021/12/26 11:31:50;;;;;;;;;;;-2.00;81.80;;;;;;5068759;28;19925;-85
2021/12/26 11:34:16;;;;;;;;;;;-0.60;91.50;;;;;;5052908;28;19948;-87
2021/12/26 11:36:42;;;;;;;;;;;-1.60;95.00;;;;;;5069573;28;20353;-86
2021/12/26 11:39:08;;;;;;;;;;;-0.40;95.20;;;;;;5068743;28;19924;-85
2021/12/26 11:41:37;;;;;;;;;;;-0.20;93.70;;;;;;5085404;28;20258;-85
2021/12/26 11:44:19;;;;;;;;;;;-1.70;85.70;;;;;;5066709;28;19932;-85
2021/12/26 11:47:03;;;;;;;;;;;-1.60;85.20;;;;;;5062444;28;19924;-86
2021/12/26 11:49:33;;;;;;;;;;;-1.60;83.60;;;;;;5068933;28;19931;-85
2021/12/26 11:52:12;;;;;;;;;;;-1.60;74.90;;;;;;5066755;28;19958;-86
2021/12/26 11:54:43;;;;;;;;;;;0.70;84.70;;;;;;5070107;28;20333;-86
2021/12/26 11:57:16;;;;;;;;;;;-1.50;73.20;;;;;;5069061;28;19976;-86
2021/12/26 12:00:00;;;;;;;;;;;-1.30;72.20;;;;;;5052022;28;19947;-86
2021/12/26 12:02:46;;;;;;;;;;;-1.00;77.30;;;;;;5068768;28;19975;-85
2021/12/26 12:05:13;;;;;;;;;;;-1.40;91.60;;;;;;5070557;28;20019;-85
2021/12/26 12:07:43;;;;;;;;;;;-0.60;88.30;;;;;;5052349;28;19935;-85
2021/12/26 12:10:29;;;;;;;;;;;-1.30;76.00;;;;;;5069488;28;19970;-84
2021/12/26 12:12:54;;;;;;;;;;;-1.30;69.40;;;;;;5068131;28;19978;-86
2021/12/26 12:15:40;;;;;;;;;;;-1.30;74.00;;;;;;5067622;28;19928;-86
2021/12/26 12:18:10;;;;;;;;;;;1.30;60.60;;;;;;5067490;28;19929;-86
2021/12/26 12:20:38;;;;;;;;;;;-1.30;65.70;;;;;;5068266;28;19924;-86
2021/12/26 12:23:04;;;;;;;;;;;-1.30;79.40;;;;;;5063385;28;20430;-86
2021/12/26 12:25:33;;;;;;;;;;;-1.30;85.00;;;;;;5052180;28;20027;-85
2021/12/26 12:28:10;;;;;;;;;;;-1.10;65.70;;;;;;5069561;28;20322;-85
2021/12/26 12:30:36;;;;;;;;;;;-1.00;66.20;;;;;;5063625;28;20003;-85
2021/12/26 12:33:27;;;;;;;;;;;-0.20;73.50;;;;;;5064079;28;19932;-85
2021/12/26 12:35:56;;;;;;;;;;;-1.10;51.90;;;;;;5059407;28;20510;-85
2021/12/26 12:38:22;;;;;;;;;;;-0.90;66.00;;;;;;5066387;28;20011;-84
2021/12/26 12:40:48;;;;;;;;;;;-0.70;87.00;;;;;;5065280;28;19925;-86
2021/12/26 12:43:15;;;;;;;;;;;0.00;81.20;;;;;;5065972;28;20015;-86
2021/12/26 12:45:58;;;;;;;;;;;-1.20;80.50;;;;;;5069354;28;19924;-85
2021/12/26 12:48:25;;;;;;;;;;;-1.40;70.50;;;;;;5068291;28;20024;-85
2021/12/26 12:50:52;;;;;;;;;;;-1.20;60.20;;;;;;5062890;28;19925;-85
2021/12/26 12:53:37;;;;;;;;;;;-0.20;79.60;;;;;;5070836;28;20002;-86
2021/12/26 12:56:02;;;;;;;;;;;-1.00;54.40;;;;;;5065979;28;20226;-86
2021/12/26 12:58:31;;;;;;;;;;;-0.90;78.10;;;;;;5056026;28;19943;-85
2021/12/26 13:00:58;;;;;;;;;;;-1.00;71.90;;;;;;5069493;28;19928;-85
2021/12/26 13:03:24;;;;;;;;;;;-0.90;76.60;;;;;;5065311;28;20281;-88
2021/12/26 13:05:50;;;;;;;;;;;-0.70;74.40;;;;;;5061866;28;19959;-85
2021/12/26 13:08:21;;;;;;;;;;;2.10;66.50;;;;;;5064988;28;20358;-80
2021/12/26 13:10:51;;;;;;;;;;;-0.60;65.80;;;;;;5065206;28;20416;-83
2021/12/26 13:13:17;;;;;;;;;;;-0.80;52.60;;;;;;5071242;28;20023;-85
2021/12/26 13:15:52;;;;;;;;;;;0.30;48.80;;;;;;5072614;28;19925;-82
2021/12/26 13:18:18;;;;;;;;;;;-0.70;53.80;;;;;;5069638;28;19933;-81
2021/12/26 13:20:47;;;;;;;;;;;-0.70;52.80;;;;;;5071188;28;19924;-80
2021/12/26 13:23:13;;;;;;;;;;;0.70;49.30;;;;;;5072522;28;19986;-81
2021/12/26 13:25:40;;;;;;;;;;;1.10;54.90;;;;;;5071547;28;20392;-87
2021/12/26 13:28:09;;;;;;;;;;;0.90;39.30;;;;;;5072029;28;19928;-80
2021/12/26 13:30:34;;;;;;;;;;;-0.60;33.90;;;;;;5071727;28;19932;-79
2021/12/26 13:33:00;;;;;;;;;;;0.80;42.30;;;;;;5071749;28;19924;-80
2021/12/26 13:35:30;;;;;;;;;;;-0.60;34.50;;;;;;5072605;28;19940;-79
2021/12/26 13:37:56;;;;;;;;;;;-0.40;43.80;;;;;;5072363;28;19925;-81
2021/12/26 13:40:23;;;;;;;;;;;0.90;46.50;;;;;;5072805;28;19925;-83
2021/12/26 13:42:49;;;;;;;;;;;-0.60;47.60;;;;;;5070240;28;20015;-78
2021/12/26 13:45:15;;;;;;;;;;;-0.70;56.20;;;;;;5071274;28;20269;-80
2021/12/26 13:47:41;;;;;;;;;;;-0.80;46.00;;;;;;5071778;28;20074;-80
2021/12/26 13:50:09;;;;;;;;;;;-0.70;48.70;;;;;;5077018;28;19932;-83
2021/12/26 13:52:35;;;;;;;;;;;-0.50;49.00;;;;;;5071416;28;19940;-84
2021/12/26 13:55:00;;;;;;;;;;;1.30;54.20;;;;;;5069771;28;20031;-78
2021/12/26 13:57:26;;;;;;;;;;;-0.80;54.60;;;;;;5071191;28;19928;-80
2021/12/26 13:59:53;;;;;;;;;;;1.70;54.90;;;;;;5070390;28;19932;-85
2021/12/26 14:02:19;;;;;;;;;;;1.60;50.00;;;;;;5066150;28;20329;-79
2021/12/26 14:04:47;;;;;;;;;;;-0.80;45.80;;;;;;5071289;28;20065;-84
2021/12/26 14:07:14;;;;;;;;;;;-0.20;58.60;;;;;;5068789;28;20012;-83
2021/12/26 14:09:41;;;;;;;;;;;1.90;56.50;;;;;;5066628;28;20388;-84
2021/12/26 14:12:24;;;;;;;;;;;-0.50;45.50;;;;;;5071007;28;19980;-86
2021/12/26 14:14:49;;;;;;;;;;;-0.60;60.50;;;;;;5071473;28;20000;-83
2021/12/26 14:17:15;;;;;;;;;;;1.50;65.60;;;;;;5069867;28;20058;-82
2021/12/26 14:19:40;;;;;;;;;;;0.50;54.50;;;;;;5070630;28;19928;-81
2021/12/26 14:22:06;;;;;;;;;;;-0.80;58.40;;;;;;5068890;28;20159;-82